createdAt,value
2019-03-29T00:01:55.246Z,99.90
2019-03-29T00:04:26.880Z,99.90
2019-03-29T00:06:57.291Z,99.90
2019-03-29T00:09:27.857Z,99.90
2019-03-29T00:11:58.852Z,99.90
2019-03-29T00:14:29.129Z,99.90
2019-03-29T00:16:59.426Z,99.90
2019-03-29T00:19:29.720Z,99.90
2019-03-29T00:22:00.012Z,99.90
2019-03-29T00:24:30.607Z,99.90
2019-03-29T00:27:00.893Z,99.90
2019-03-29T00:29:31.182Z,99.90
2019-03-29T00:32:01.459Z,99.90
2019-03-29T00:34:31.742Z,99.90
2019-03-29T00:37:02.028Z,99.90
2019-03-29T00:39:32.550Z,99.90
2019-03-29T00:42:02.826Z,99.90
2019-03-29T00:44:33.750Z,99.90
2019-03-29T00:47:04.105Z,99.90
2019-03-29T00:49:34.699Z,99.90
2019-03-29T00:52:05.298Z,99.90
2019-03-29T00:54:35.569Z,99.90
2019-03-29T00:57:05.849Z,99.90
2019-03-29T00:59:36.121Z,99.90
2019-03-29T01:02:06.401Z,99.90
2019-03-29T01:04:36.695Z,99.90
2019-03-29T01:07:06.967Z,99.90
2019-03-29T01:09:37.261Z,99.90
2019-03-29T01:12:07.542Z,99.90
2019-03-29T01:14:38.118Z,99.90
2019-03-29T01:17:08.404Z,99.90
2019-03-29T01:19:39.006Z,99.90
2019-03-29T01:22:09.356Z,99.90
2019-03-29T01:24:39.773Z,99.90
2019-03-29T01:27:10.848Z,99.90
2019-03-29T01:29:41.197Z,99.90
2019-03-29T01:32:11.474Z,99.90
2019-03-29T01:34:42.968Z,99.90
2019-03-29T01:37:13.404Z,99.90
2019-03-29T01:39:43.977Z,99.90
2019-03-29T01:42:14.260Z,99.90
2019-03-29T01:44:44.533Z,99.90
2019-03-29T01:47:14.819Z,99.90
2019-03-29T01:49:45.657Z,99.90
2019-03-29T01:52:16.129Z,99.90
2019-03-29T01:54:46.401Z,99.90
2019-03-29T01:57:16.676Z,99.90
2019-03-29T01:59:47.369Z,99.90
2019-03-29T02:02:17.639Z,99.90
2019-03-29T02:04:47.909Z,99.90
2019-03-29T02:07:18.194Z,99.90
2019-03-29T02:09:48.464Z,99.90
2019-03-29T02:12:19.317Z,99.90
2019-03-29T02:14:50.135Z,99.90
2019-03-29T02:17:21.249Z,99.90
2019-03-29T02:19:52.168Z,99.90
2019-03-29T02:22:22.574Z,99.90
2019-03-29T02:24:52.848Z,99.90
2019-03-29T02:27:23.188Z,99.90
2019-03-29T02:29:53.461Z,99.90
2019-03-29T02:32:25.091Z,99.90
2019-03-29T02:34:55.925Z,99.90
2019-03-29T02:37:26.355Z,99.90
2019-03-29T02:39:56.702Z,99.90
2019-03-29T02:42:28.578Z,99.90
2019-03-29T02:44:58.877Z,99.90
2019-03-29T02:47:29.779Z,99.90
2019-03-29T02:50:00.456Z,99.90
2019-03-29T02:52:30.793Z,99.90
2019-03-29T02:55:01.082Z,99.90
2019-03-29T02:57:31.490Z,99.90
2019-03-29T03:00:02.653Z,99.90
2019-03-29T03:02:32.922Z,99.90
2019-03-29T03:05:03.358Z,99.90
2019-03-29T03:07:33.630Z,99.90
2019-03-29T03:10:06.722Z,99.90
2019-03-29T03:12:36.994Z,99.90
2019-03-29T03:15:09.225Z,99.90
2019-03-29T03:17:39.656Z,99.90
2019-03-29T03:20:15.456Z,99.90
2019-03-29T03:22:45.452Z,99.90
2019-03-29T03:25:16.168Z,99.90
2019-03-29T03:27:46.439Z,99.90
2019-03-29T03:30:17.169Z,99.90
2019-03-29T03:32:47.454Z,99.90
2019-03-29T03:35:19.020Z,99.90
2019-03-29T03:37:49.617Z,99.90
2019-03-29T03:40:19.961Z,99.90
2019-03-29T03:42:50.774Z,99.90
2019-03-29T03:45:21.044Z,99.90
2019-03-29T03:47:51.618Z,99.90
2019-03-29T03:50:41.910Z,99.90
2019-03-29T03:53:12.527Z,99.90
2019-03-29T03:55:43.585Z,99.90
2019-03-29T03:58:15.377Z,99.90
2019-03-29T04:00:56.594Z,99.90
2019-03-29T04:03:27.770Z,99.90
2019-03-29T04:05:59.061Z,99.90
2019-03-29T04:08:29.467Z,99.90
2019-03-29T04:10:59.726Z,99.90
2019-03-29T04:13:30.005Z,99.90
2019-03-29T04:16:00.275Z,99.90
2019-03-29T04:18:30.573Z,99.90
2019-03-29T04:21:00.830Z,99.90
2019-03-29T04:23:31.176Z,99.90
2019-03-29T04:26:01.453Z,99.90
2019-03-29T04:28:31.730Z,99.90
2019-03-29T04:31:01.995Z,99.90
2019-03-29T04:33:32.288Z,99.90
2019-03-29T04:36:02.549Z,99.90
2019-03-29T04:38:32.840Z,99.90
2019-03-29T04:41:03.624Z,99.90
2019-03-29T04:43:34.021Z,99.90
2019-03-29T04:46:04.289Z,99.90
2019-03-29T04:48:34.567Z,99.90
2019-03-29T04:51:04.831Z,99.90
2019-03-29T04:53:35.111Z,99.90
2019-03-29T04:56:05.384Z,99.90
2019-03-29T04:58:35.656Z,99.90
2019-03-29T05:01:06.006Z,99.90
2019-03-29T05:03:36.588Z,99.90
2019-03-29T05:06:06.857Z,99.90
2019-03-29T05:08:37.214Z,99.90
2019-03-29T05:11:07.421Z,99.90
2019-03-29T05:13:37.695Z,99.90
2019-03-29T05:16:07.982Z,99.90
2019-03-29T05:18:38.477Z,99.90
2019-03-29T05:21:08.758Z,99.90
2019-03-29T05:23:39.032Z,99.90
2019-03-29T05:26:09.314Z,99.90
2019-03-29T05:28:39.828Z,99.90
2019-03-29T05:31:10.177Z,99.90
2019-03-29T05:33:40.789Z,99.90
2019-03-29T05:36:11.059Z,99.90
2019-03-29T05:38:41.346Z,99.90
2019-03-29T05:41:11.614Z,99.90
2019-03-29T05:43:42.288Z,99.90
2019-03-29T05:46:12.560Z,99.90
2019-03-29T05:48:42.839Z,99.90
2019-03-29T05:51:13.132Z,99.90
2019-03-29T05:53:43.415Z,99.90
2019-03-29T05:56:13.688Z,99.90
2019-03-29T05:58:43.980Z,99.90
2019-03-29T06:01:14.250Z,99.90
2019-03-29T06:03:44.528Z,99.90
2019-03-29T06:06:15.633Z,99.90
2019-03-29T06:08:46.152Z,99.90
2019-03-29T06:11:16.682Z,99.90
2019-03-29T06:13:47.025Z,99.90
2019-03-29T06:16:17.307Z,99.90
2019-03-29T06:18:47.608Z,99.90
2019-03-29T06:21:17.891Z,99.90
2019-03-29T06:23:48.174Z,99.90
2019-03-29T06:26:18.735Z,99.90
2019-03-29T06:28:49.020Z,99.90
2019-03-29T06:31:19.314Z,99.90
2019-03-29T06:33:49.600Z,99.90
2019-03-29T06:36:22.490Z,99.90
2019-03-29T06:38:54.403Z,99.90
2019-03-29T06:41:24.690Z,99.90
2019-03-29T06:43:55.307Z,99.90
2019-03-29T06:46:25.596Z,99.90
2019-03-29T06:48:56.742Z,99.90
2019-03-29T06:51:27.030Z,99.90
2019-03-29T06:53:57.631Z,99.90
2019-03-29T06:56:27.909Z,99.90
2019-03-29T06:58:58.207Z,99.90
2019-03-29T07:01:28.588Z,99.90
2019-03-29T07:03:58.880Z,99.90
2019-03-29T07:06:30.648Z,99.90
2019-03-29T07:09:01.083Z,99.90
2019-03-29T07:11:31.350Z,99.90
2019-03-29T07:14:01.659Z,99.90
2019-03-29T07:16:31.948Z,99.90
2019-03-29T07:19:05.021Z,99.90
2019-03-29T07:21:34.231Z,99.90
2019-03-29T07:24:04.603Z,99.90
2019-03-29T07:26:34.891Z,99.90
2019-03-29T07:29:05.244Z,99.90
2019-03-29T07:31:35.540Z,99.90
2019-03-29T07:34:05.966Z,99.90
2019-03-29T07:36:36.264Z,99.90
2019-03-29T07:39:07.449Z,99.90
2019-03-29T07:41:38.811Z,99.90
2019-03-29T07:44:09.108Z,99.90
2019-03-29T07:46:39.401Z,99.90
2019-03-29T07:49:09.988Z,99.90
2019-03-29T07:51:40.279Z,99.90
2019-03-29T07:54:10.564Z,99.90
2019-03-29T07:56:40.860Z,99.90
2019-03-29T07:59:11.143Z,99.90
2019-03-29T08:01:41.435Z,99.90
2019-03-29T08:04:11.735Z,99.20
2019-03-29T08:06:42.026Z,99.70
2019-03-29T08:09:22.236Z,99.90
2019-03-29T08:11:46.425Z,98.90
2019-03-29T08:14:16.822Z,99.00
2019-03-29T08:16:47.350Z,98.70
2019-03-29T08:19:17.645Z,97.60
2019-03-29T08:21:47.939Z,97.70
2019-03-29T08:24:18.252Z,97.50
2019-03-29T08:26:48.578Z,97.50
2019-03-29T08:29:18.869Z,97.10
2019-03-29T08:31:49.159Z,97.30
2019-03-29T08:34:19.450Z,96.10
2019-03-29T08:36:49.744Z,97.40
2019-03-29T08:39:27.923Z,97.60
2019-03-29T08:41:59.975Z,99.90
2019-03-29T08:44:24.429Z,96.30
2019-03-29T08:46:54.778Z,94.10
2019-03-29T08:49:25.080Z,95.00
2019-03-29T08:51:55.367Z,93.20
2019-03-29T08:54:25.669Z,94.10
2019-03-29T08:56:55.959Z,93.80
2019-03-29T08:59:26.252Z,94.10
2019-03-29T09:01:56.605Z,93.10
2019-03-29T09:04:27.112Z,92.70
2019-03-29T09:06:57.420Z,92.70
2019-03-29T09:09:29.232Z,93.00
2019-03-29T09:12:13.358Z,92.90
2019-03-29T09:14:31.698Z,91.80
2019-03-29T09:17:02.192Z,93.10
2019-03-29T09:19:32.496Z,92.20
2019-03-29T09:22:02.779Z,93.50
2019-03-29T09:24:33.551Z,91.70
2019-03-29T09:27:03.904Z,90.80
2019-03-29T09:29:34.219Z,91.90
2019-03-29T09:32:04.572Z,91.20
2019-03-29T09:34:34.868Z,90.10
2019-03-29T09:37:05.159Z,88.90
2019-03-29T09:39:35.463Z,91.90
2019-03-29T09:42:09.255Z,91.00
2019-03-29T09:44:37.749Z,90.90
2019-03-29T09:47:08.059Z,91.30
2019-03-29T09:49:38.353Z,89.80
2019-03-29T09:52:08.659Z,90.20
2019-03-29T09:54:39.638Z,89.80
2019-03-29T09:57:11.631Z,86.20
2019-03-29T09:59:41.923Z,88.50
2019-03-29T10:02:12.211Z,86.10
2019-03-29T10:04:43.228Z,85.60
2019-03-29T10:07:14.024Z,85.20
2019-03-29T10:09:44.312Z,84.50
2019-03-29T10:12:14.873Z,83.30
2019-03-29T10:14:45.234Z,82.50
2019-03-29T10:17:15.521Z,81.90
2019-03-29T10:19:45.806Z,78.70
2019-03-29T10:22:16.095Z,78.70
2019-03-29T10:24:46.379Z,81.20
2019-03-29T10:27:19.038Z,83.30
2019-03-29T10:29:48.834Z,83.90
2019-03-29T10:32:19.149Z,83.10
2019-03-29T10:34:49.435Z,83.30
2019-03-29T10:37:19.791Z,84.40
2019-03-29T10:39:50.080Z,82.10
2019-03-29T10:42:20.361Z,79.60
2019-03-29T10:44:50.758Z,81.60
2019-03-29T10:47:21.085Z,82.70
2019-03-29T10:49:51.374Z,82.60
2019-03-29T10:52:21.682Z,81.90
2019-03-29T10:54:51.970Z,82.90
2019-03-29T10:57:22.296Z,83.70
2019-03-29T10:59:52.567Z,81.50
2019-03-29T11:02:23.116Z,78.60
2019-03-29T11:04:53.626Z,79.20
2019-03-29T11:07:23.987Z,80.10
2019-03-29T11:09:54.295Z,80.20
2019-03-29T11:12:24.584Z,77.70
2019-03-29T11:14:54.940Z,76.90
2019-03-29T11:17:25.237Z,76.20
2019-03-29T11:19:55.514Z,78.20
2019-03-29T11:22:25.803Z,78.30
2019-03-29T11:24:56.099Z,75.30
2019-03-29T11:27:26.454Z,75.20
2019-03-29T11:29:57.456Z,74.60
2019-03-29T11:32:27.707Z,76.20
2019-03-29T11:34:57.997Z,77.20
2019-03-29T11:37:28.565Z,79.30
2019-03-29T11:39:58.857Z,74.50
2019-03-29T11:42:29.138Z,75.80
2019-03-29T11:44:59.425Z,73.50
2019-03-29T11:47:30.198Z,73.20
2019-03-29T11:50:00.804Z,71.20
2019-03-29T11:52:33.743Z,69.90
2019-03-29T11:55:03.398Z,68.80
2019-03-29T11:57:33.673Z,71.10
2019-03-29T12:00:05.297Z,72.70
2019-03-29T12:02:35.569Z,69.60
2019-03-29T12:05:07.102Z,67.00
2019-03-29T12:07:37.831Z,69.80
2019-03-29T12:10:09.346Z,67.40
2019-03-29T12:12:39.630Z,64.70
2019-03-29T12:15:10.249Z,65.80
2019-03-29T12:17:40.537Z,64.60
2019-03-29T12:20:11.611Z,64.70
2019-03-29T12:22:41.889Z,64.10
2019-03-29T12:25:12.173Z,66.00
2019-03-29T12:27:42.733Z,65.50
2019-03-29T12:30:30.532Z,61.00
2019-03-29T12:32:46.306Z,58.20
2019-03-29T12:35:16.883Z,59.40
2019-03-29T12:37:47.170Z,57.30
2019-03-29T12:40:17.459Z,56.70
2019-03-29T12:42:47.733Z,57.50
2019-03-29T12:45:18.093Z,57.20
2019-03-29T12:47:48.376Z,57.90
2019-03-29T12:50:18.731Z,57.10
2019-03-29T12:52:49.009Z,56.20
2019-03-29T12:55:19.302Z,57.30
2019-03-29T12:57:49.907Z,57.40
2019-03-29T13:00:20.401Z,55.50
2019-03-29T13:02:50.689Z,55.60
2019-03-29T13:05:22.038Z,54.30
2019-03-29T13:07:53.373Z,53.20
2019-03-29T13:10:25.475Z,52.50
2019-03-29T13:12:55.760Z,54.50
2019-03-29T13:15:26.110Z,55.00
2019-03-29T13:17:56.404Z,53.60
2019-03-29T13:20:26.680Z,53.70
2019-03-29T13:22:56.972Z,54.10
2019-03-29T13:25:27.485Z,55.60
2019-03-29T13:27:59.488Z,52.20
2019-03-29T13:30:29.994Z,53.00
2019-03-29T13:33:00.352Z,52.40
2019-03-29T13:35:30.937Z,51.70
2019-03-29T13:38:01.230Z,50.70
2019-03-29T13:40:31.773Z,51.40
2019-03-29T13:43:02.081Z,51.10
2019-03-29T13:45:32.426Z,50.60
2019-03-29T13:48:02.713Z,52.40
2019-03-29T13:50:33.932Z,50.60
2019-03-29T13:53:04.283Z,48.90
2019-03-29T13:55:34.579Z,47.40
2019-03-29T13:58:05.256Z,47.20
2019-03-29T14:00:35.809Z,47.50
2019-03-29T14:03:06.363Z,50.00
2019-03-29T14:05:36.970Z,49.70
2019-03-29T14:08:07.248Z,48.50
2019-03-29T14:10:37.927Z,49.30
2019-03-29T14:13:08.419Z,47.50
2019-03-29T14:15:40.105Z,46.80
2019-03-29T14:18:10.398Z,46.20
2019-03-29T14:20:40.678Z,45.90
2019-03-29T14:23:10.951Z,45.10
2019-03-29T14:25:41.245Z,44.60
2019-03-29T14:28:11.522Z,45.20
2019-03-29T14:30:41.815Z,47.30
2019-03-29T14:33:12.094Z,45.40
2019-03-29T14:35:42.407Z,45.90
2019-03-29T14:38:12.697Z,47.10
2019-03-29T14:40:43.325Z,46.00
2019-03-29T14:43:13.773Z,45.10
2019-03-29T14:45:44.066Z,47.30
2019-03-29T14:48:14.358Z,45.00
2019-03-29T14:50:44.635Z,44.10
2019-03-29T14:53:14.934Z,44.90
2019-03-29T14:55:45.249Z,44.70
2019-03-29T14:58:15.605Z,44.60
2019-03-29T15:00:48.569Z,44.40
2019-03-29T15:03:18.417Z,45.70
2019-03-29T15:05:48.711Z,44.10
2019-03-29T15:08:19.005Z,43.60
2019-03-29T15:10:49.289Z,44.10
2019-03-29T15:13:19.598Z,44.10
2019-03-29T15:15:53.229Z,43.70
2019-03-29T15:18:21.958Z,44.10
2019-03-29T15:20:54.080Z,44.50
2019-03-29T15:23:24.259Z,44.60
2019-03-29T15:25:54.524Z,43.10
2019-03-29T15:28:25.046Z,43.30
2019-03-29T15:30:55.325Z,43.60
2019-03-29T15:33:25.618Z,43.70
2019-03-29T15:35:55.928Z,44.40
2019-03-29T15:38:26.208Z,44.80
2019-03-29T15:40:56.503Z,45.70
2019-03-29T15:43:26.781Z,43.60
2019-03-29T15:45:57.080Z,43.90
2019-03-29T15:48:27.370Z,45.90
2019-03-29T15:50:57.669Z,44.20
2019-03-29T15:53:27.942Z,46.00
2019-03-29T15:55:58.246Z,45.40
2019-03-29T15:58:28.522Z,45.00
2019-03-29T16:00:58.840Z,45.20
2019-03-29T16:03:29.114Z,45.10
2019-03-29T16:05:59.404Z,45.10
2019-03-29T16:08:30.318Z,44.70
2019-03-29T16:11:00.602Z,45.20
2019-03-29T16:13:30.890Z,46.10
2019-03-29T16:16:01.182Z,45.00
2019-03-29T16:18:31.478Z,43.10
2019-03-29T16:21:01.764Z,44.20
2019-03-29T16:23:32.069Z,44.30
2019-03-29T16:26:02.376Z,44.90
2019-03-29T16:28:32.675Z,44.80
2019-03-29T16:31:03.299Z,45.00
2019-03-29T16:33:33.590Z,44.80
2019-03-29T16:36:03.876Z,45.10
2019-03-29T16:38:34.477Z,44.50
2019-03-29T16:41:04.759Z,45.50
2019-03-29T16:43:35.048Z,45.60
2019-03-29T16:46:05.325Z,45.60
2019-03-29T16:48:35.621Z,45.90
2019-03-29T16:51:05.933Z,46.20
2019-03-29T16:53:36.270Z,46.40
2019-03-29T16:56:06.500Z,46.30
2019-03-29T16:58:36.779Z,46.60
2019-03-29T17:01:07.169Z,46.40
2019-03-29T17:03:37.448Z,47.50
2019-03-29T17:06:07.744Z,48.40
2019-03-29T17:08:38.024Z,48.30
2019-03-29T17:11:08.332Z,49.40
2019-03-29T17:13:38.628Z,50.50
2019-03-29T17:16:08.926Z,51.50
2019-03-29T17:18:40.226Z,51.60
2019-03-29T17:21:10.830Z,52.90
2019-03-29T17:23:41.261Z,53.80
2019-03-29T17:26:11.559Z,53.70
2019-03-29T17:28:41.871Z,54.20
2019-03-29T17:31:13.790Z,53.60
2019-03-29T17:33:44.631Z,54.50
2019-03-29T17:36:14.933Z,55.80
2019-03-29T17:38:45.209Z,55.70
2019-03-29T17:41:15.502Z,56.60
2019-03-29T17:43:45.787Z,57.10
2019-03-29T17:46:17.067Z,57.20
2019-03-29T17:48:47.539Z,57.70
2019-03-29T17:51:18.086Z,58.90
2019-03-29T17:53:48.735Z,59.90
2019-03-29T17:56:19.004Z,59.10
2019-03-29T17:58:49.299Z,60.20
2019-03-29T18:01:19.578Z,59.70
2019-03-29T18:03:49.873Z,59.90
2019-03-29T18:06:20.177Z,60.50
2019-03-29T18:08:50.445Z,60.70
2019-03-29T18:11:20.728Z,61.10
2019-03-29T18:13:51.011Z,60.90
2019-03-29T18:16:30.640Z,61.40
2019-03-29T18:18:53.770Z,61.40
2019-03-29T18:21:24.065Z,62.50
2019-03-29T18:23:54.417Z,62.90
2019-03-29T18:26:24.720Z,63.70
2019-03-29T18:28:55.006Z,65.00
2019-03-29T18:31:26.042Z,64.90
2019-03-29T18:33:56.386Z,64.80
2019-03-29T18:36:27.104Z,64.70
2019-03-29T18:38:57.817Z,65.30
2019-03-29T18:41:28.190Z,65.70
2019-03-29T18:43:58.476Z,66.20
2019-03-29T18:46:28.800Z,67.10
2019-03-29T18:48:59.080Z,67.80
2019-03-29T18:51:29.663Z,69.10
2019-03-29T18:53:59.939Z,69.70
2019-03-29T18:56:30.244Z,70.20
2019-03-29T18:59:00.593Z,71.10
2019-03-29T19:01:31.372Z,71.00
2019-03-29T19:04:01.666Z,71.80
2019-03-29T19:06:31.951Z,73.20
2019-03-29T19:09:02.257Z,73.30
2019-03-29T19:11:32.875Z,74.10
2019-03-29T19:14:03.164Z,74.60
2019-03-29T19:16:33.455Z,75.50
2019-03-29T19:19:09.921Z,75.80
2019-03-29T19:21:35.721Z,76.20
2019-03-29T19:24:06.347Z,76.40
2019-03-29T19:26:36.644Z,76.00
2019-03-29T19:29:06.920Z,77.00
2019-03-29T19:31:37.577Z,77.30
2019-03-29T19:34:07.869Z,77.30
2019-03-29T19:36:38.472Z,78.80
2019-03-29T19:39:08.747Z,79.20
2019-03-29T19:41:39.333Z,79.80
2019-03-29T19:44:12.840Z,79.80
2019-03-29T19:46:41.606Z,80.40
2019-03-29T19:49:12.697Z,81.40
2019-03-29T19:51:43.047Z,82.00
2019-03-29T19:54:13.314Z,82.60
2019-03-29T19:56:43.570Z,83.40
2019-03-29T19:59:13.882Z,83.50
2019-03-29T20:01:44.532Z,83.30
2019-03-29T20:04:15.251Z,83.80
2019-03-29T20:06:45.534Z,83.80
2019-03-29T20:09:15.827Z,84.00
2019-03-29T20:11:46.124Z,84.90
2019-03-29T20:14:16.403Z,85.80
2019-03-29T20:16:47.391Z,87.00
2019-03-29T20:19:20.074Z,87.10
2019-03-29T20:21:49.699Z,87.00
2019-03-29T20:24:19.979Z,87.80
2019-03-29T20:26:50.273Z,87.90
2019-03-29T20:29:20.571Z,89.00
2019-03-29T20:31:50.917Z,89.60
2019-03-29T20:34:22.285Z,90.30
2019-03-29T20:36:52.558Z,90.10
2019-03-29T20:39:23.145Z,90.40
2019-03-29T20:41:53.422Z,90.40
2019-03-29T20:44:23.734Z,90.70
2019-03-29T20:46:54.010Z,90.70
2019-03-29T20:49:24.307Z,91.20
2019-03-29T20:51:54.595Z,91.10
2019-03-29T20:54:24.879Z,91.30
2019-03-29T20:56:55.173Z,91.50
2019-03-29T20:59:25.495Z,91.70
2019-03-29T21:01:56.056Z,92.10
2019-03-29T21:04:26.349Z,92.30
2019-03-29T21:06:56.641Z,92.80
2019-03-29T21:09:26.921Z,93.00
2019-03-29T21:11:57.224Z,93.40
2019-03-29T21:14:27.510Z,93.50
2019-03-29T21:16:57.802Z,93.50
2019-03-29T21:19:28.081Z,93.70
2019-03-29T21:21:58.381Z,93.80
2019-03-29T21:24:28.661Z,94.20
2019-03-29T21:26:58.988Z,94.80
2019-03-29T21:29:29.329Z,95.00
2019-03-29T21:31:59.712Z,95.20
2019-03-29T21:34:29.989Z,95.30
2019-03-29T21:37:00.603Z,95.20
2019-03-29T21:39:31.299Z,95.00
2019-03-29T21:42:01.760Z,95.50
2019-03-29T21:44:32.048Z,95.20
2019-03-29T21:47:02.341Z,95.30
2019-03-29T21:49:32.617Z,95.40
2019-03-29T21:52:03.165Z,95.50
2019-03-29T21:54:33.437Z,95.70
2019-03-29T21:57:03.915Z,95.90
2019-03-29T21:59:34.197Z,96.20
2019-03-29T22:02:04.484Z,96.60
2019-03-29T22:04:34.758Z,96.80
2019-03-29T22:07:05.057Z,96.70
2019-03-29T22:09:37.028Z,96.80
2019-03-29T22:12:08.107Z,96.90
2019-03-29T22:14:38.408Z,97.00
2019-03-29T22:17:08.693Z,97.40
2019-03-29T22:19:38.983Z,97.30
2019-03-29T22:22:09.265Z,97.40
2019-03-29T22:24:39.540Z,97.70
2019-03-29T22:27:10.056Z,97.70
2019-03-29T22:29:40.347Z,97.70
2019-03-29T22:32:10.619Z,97.80
2019-03-29T22:34:40.903Z,97.70
2019-03-29T22:37:11.180Z,97.80
2019-03-29T22:39:41.706Z,98.20
2019-03-29T22:42:11.978Z,97.80
2019-03-29T22:44:42.262Z,98.00
2019-03-29T22:47:12.533Z,97.90
2019-03-29T22:49:43.044Z,98.00
2019-03-29T22:52:13.321Z,98.10
2019-03-29T22:54:43.608Z,98.10
2019-03-29T22:57:13.886Z,98.20
2019-03-29T22:59:44.240Z,98.30
2019-03-29T23:02:16.012Z,98.30
2019-03-29T23:04:46.284Z,98.50
2019-03-29T23:07:16.552Z,98.70
2019-03-29T23:09:47.287Z,99.00
2019-03-29T23:12:17.575Z,99.00
2019-03-29T23:14:47.860Z,99.20
2019-03-29T23:17:18.124Z,99.00
2019-03-29T23:19:48.399Z,99.20
2019-03-29T23:22:18.673Z,99.20
2019-03-29T23:24:51.386Z,99.60
2019-03-29T23:27:22.554Z,99.70
2019-03-29T23:29:52.823Z,99.70
2019-03-29T23:32:23.131Z,99.90
2019-03-29T23:34:53.418Z,99.90
2019-03-29T23:37:23.690Z,99.80
2019-03-29T23:39:54.196Z,99.80
2019-03-29T23:42:24.470Z,99.90
2019-03-29T23:44:54.747Z,99.90
2019-03-29T23:47:25.301Z,99.90
2019-03-29T23:49:55.564Z,99.90
2019-03-29T23:52:25.840Z,99.90
2019-03-29T23:54:56.480Z,99.90
2019-03-29T23:57:27.069Z,99.90
2019-03-29T23:59:57.344Z,99.90
